Portada
METAR-TAF:

METAR-TAF

Aeroports :

Ciudad Obregón, Mèxic

latitud: 27-24N, longitud: 109-50W, altitud: 62 m

Observació

L'informe es va fer fa 22 minuts, a les 20:47 UTC
Vent 7 kt del Oest
Temperatura 39°C
Humitat 21%
Pressió 1007 hPa
Visibilitat: 12.9 km
Cel clar

METAR: MMCN 192047Z 27007KT 8SM SKC 39/13 A2974 RMK SLP072 HZY

Hora: 14:09 (21:09 UTC)

Pronòstic

L'informe es va fer fa 4 hores i 14 minuts, a les 16:55 UTC
Pronòstic vàlid del 19 a les 18 UTC al 20 a les 18 UTC
Vent 10 kt del Oest/Sud-Oest
Visibilitat: 10 km
Cel clar
A partir de les 20 a les 0300 UTC
Vent kt del Nord
Visibilitat: 10 km
Cel clar
Temporalment
l' 20 a les 12 UTC al 20 a les 15 UTC
Visibilitat: 4.8 km
boirina

TAF: MMCN 191655Z 1918/2018 24010KT P6SM SKC FM200300 00000KT P6SM SKC TEMPO 2012/2015 3SM BR

Observacions i pronòstics meteorològics de més de 4000 aeroports (METAR i TAF).

Les estacions disponibles són els punts grocs i vermells al mapa.

Posi el ratolí al punt desitjat per veure el nom de l'estació.

Feu clic per veure les observacions i els pronòstics meteorològics.

Per canviar el mapa: feu clic els botons verds amb una creu de color negre per apropar; al botó verd amb un guió per allunyar la imatge; o en les fletxes verdes per a mapes adjacents.


METAR-TAF: